createdAt,value
2022-11-14T00:00:28.577Z,20.86
2022-11-14T00:01:48.842Z,20.86
2022-11-14T00:03:10.781Z,20.85
2022-11-14T00:04:30.883Z,20.79
2022-11-14T00:05:51.270Z,20.75
2022-11-14T00:07:11.400Z,20.81
2022-11-14T00:08:31.871Z,20.75
2022-11-14T00:09:52.278Z,20.80
2022-11-14T00:11:12.558Z,20.76
2022-11-14T00:12:33.023Z,20.79
2022-11-14T00:13:53.222Z,20.78
2022-11-14T00:15:14.393Z,20.77
2022-11-14T00:16:34.492Z,20.77
2022-11-14T00:17:54.697Z,20.75
2022-11-14T00:19:15.086Z,20.74
2022-11-14T00:20:35.105Z,20.71
2022-11-14T00:21:55.337Z,20.64
2022-11-14T00:23:15.433Z,20.68
2022-11-14T00:24:35.418Z,20.71
2022-11-14T00:25:55.664Z,20.70
2022-11-14T00:27:16.306Z,20.70
2022-11-14T00:28:36.622Z,20.63
2022-11-14T00:29:56.881Z,20.67
2022-11-14T00:31:16.849Z,20.67
2022-11-14T00:32:37.167Z,20.66
2022-11-14T00:33:57.660Z,20.65
2022-11-14T00:35:18.025Z,20.65
2022-11-14T00:36:38.408Z,20.61
2022-11-14T00:37:58.846Z,20.58
2022-11-14T00:39:19.303Z,20.61
2022-11-14T00:40:39.633Z,20.62
2022-11-14T00:41:59.778Z,20.59
2022-11-14T00:43:19.990Z,20.59
2022-11-14T00:44:40.211Z,20.58
2022-11-14T00:46:00.466Z,20.55
2022-11-14T00:47:20.570Z,20.59
2022-11-14T00:48:40.945Z,20.51
2022-11-14T00:50:01.118Z,20.57
2022-11-14T00:51:21.358Z,20.58
2022-11-14T00:52:41.609Z,20.57
2022-11-14T00:54:02.021Z,20.49
2022-11-14T00:55:22.097Z,20.46
2022-11-14T00:56:42.453Z,20.55
2022-11-14T00:58:02.870Z,20.53
2022-11-14T00:59:23.021Z,20.46
2022-11-14T01:00:43.589Z,20.53
2022-11-14T01:02:03.955Z,20.53
2022-11-14T01:03:24.315Z,20.52
2022-11-14T01:04:44.705Z,20.50
2022-11-14T01:06:11.158Z,20.50
2022-11-14T01:07:31.153Z,20.51
2022-11-14T01:08:52.018Z,20.50
2022-11-14T01:10:12.326Z,20.48
2022-11-14T01:11:32.542Z,20.49
2022-11-14T01:12:52.924Z,20.41
2022-11-14T01:14:13.182Z,20.44
2022-11-14T01:15:33.492Z,20.40
2022-11-14T01:16:53.850Z,20.46
2022-11-14T01:18:20.421Z,20.43
2022-11-14T01:19:41.024Z,20.37
2022-11-14T01:21:04.190Z,20.43
2022-11-14T01:22:24.416Z,20.43
2022-11-14T01:23:44.529Z,20.43
2022-11-14T01:25:05.283Z,20.41
2022-11-14T01:26:25.696Z,20.40
2022-11-14T01:27:45.694Z,20.30
2022-11-14T01:29:05.846Z,20.40
2022-11-14T01:30:26.142Z,20.38
2022-11-14T01:31:46.241Z,20.38
2022-11-14T01:33:07.383Z,20.33
2022-11-14T01:34:27.535Z,20.30
2022-11-14T01:35:47.867Z,20.30
2022-11-14T01:37:08.389Z,20.34
2022-11-14T01:38:28.782Z,20.30
2022-11-14T01:39:49.426Z,20.33
2022-11-14T01:41:13.317Z,20.35
2022-11-14T01:42:33.693Z,20.31
2022-11-14T01:43:54.034Z,20.35
2022-11-14T01:45:51.785Z,20.38
2022-11-14T01:47:16.514Z,20.38
2022-11-14T01:48:41.589Z,20.33
2022-11-14T01:50:05.957Z,20.34
2022-11-14T01:51:31.526Z,20.31
2022-11-14T01:52:51.726Z,20.35
2022-11-14T01:54:17.017Z,20.31
2022-11-14T01:55:37.589Z,20.24
2022-11-14T01:57:00.171Z,20.29
2022-11-14T01:58:22.213Z,20.23
2022-11-14T01:59:48.921Z,20.29
2022-11-14T02:01:09.055Z,20.31
2022-11-14T02:02:29.702Z,20.26
2022-11-14T02:03:53.111Z,20.27
2022-11-14T02:05:16.534Z,20.26
2022-11-14T02:06:37.314Z,20.28
2022-11-14T02:07:58.287Z,20.25
2022-11-14T02:09:19.999Z,20.26
2022-11-14T02:10:40.486Z,20.25
2022-11-14T02:12:02.532Z,20.23
2022-11-14T02:13:22.554Z,20.24
2022-11-14T02:14:45.439Z,20.19
2022-11-14T02:16:06.693Z,20.15
2022-11-14T02:17:29.965Z,20.23
2022-11-14T02:18:51.149Z,20.18
2022-11-14T02:20:11.473Z,20.22
2022-11-14T02:21:31.576Z,20.19
2022-11-14T02:22:51.731Z,20.15
2022-11-14T02:24:13.518Z,20.20
2022-11-14T02:25:33.809Z,20.20
2022-11-14T02:26:54.161Z,20.21
2022-11-14T02:28:14.433Z,20.20
2022-11-14T02:29:35.632Z,20.17
2022-11-14T02:30:56.042Z,20.17
2022-11-14T02:32:16.474Z,20.17
2022-11-14T02:33:36.909Z,20.13
2022-11-14T02:34:57.045Z,20.17
2022-11-14T02:36:17.203Z,20.07
2022-11-14T02:37:37.990Z,20.16
2022-11-14T02:38:58.206Z,20.16
2022-11-14T02:40:18.632Z,20.15
2022-11-14T02:41:38.904Z,20.16
2022-11-14T02:42:59.693Z,20.14
2022-11-14T02:44:20.641Z,20.14
2022-11-14T02:45:41.063Z,20.14
2022-11-14T02:47:01.328Z,20.08
2022-11-14T02:48:21.699Z,20.10
2022-11-14T02:49:42.174Z,20.12
2022-11-14T02:51:02.534Z,20.15
2022-11-14T02:52:22.987Z,20.12
2022-11-14T02:53:43.240Z,20.07
2022-11-14T02:55:05.152Z,20.13
2022-11-14T02:56:25.536Z,20.12
2022-11-14T02:57:45.955Z,20.02
2022-11-14T02:59:06.257Z,20.05
2022-11-14T03:00:26.829Z,20.12
2022-11-14T03:01:47.476Z,20.14
2022-11-14T03:03:07.778Z,20.12
2022-11-14T03:04:28.027Z,20.13
2022-11-14T03:05:48.398Z,20.11
2022-11-14T03:07:08.850Z,20.12
2022-11-14T03:08:29.944Z,20.13
2022-11-14T03:09:50.567Z,20.10
2022-11-14T03:11:11.022Z,20.07
2022-11-14T03:12:31.487Z,20.12
2022-11-14T03:13:51.774Z,20.12
2022-11-14T03:15:11.988Z,20.09
2022-11-14T03:16:32.371Z,20.11
2022-11-14T03:17:52.361Z,20.11
2022-11-14T03:19:12.491Z,20.05
2022-11-14T03:20:32.680Z,20.06
2022-11-14T03:21:52.981Z,20.10
2022-11-14T03:23:12.941Z,20.06
2022-11-14T03:24:33.210Z,20.09
2022-11-14T03:25:53.368Z,20.10
2022-11-14T03:27:13.555Z,20.10
2022-11-14T03:28:34.502Z,20.09
2022-11-14T03:29:54.497Z,20.07
2022-11-14T03:31:15.416Z,20.09
2022-11-14T03:32:35.618Z,20.10
2022-11-14T03:33:55.968Z,20.10
2022-11-14T03:35:16.226Z,20.10
2022-11-14T03:36:37.080Z,20.09
2022-11-14T03:37:57.144Z,20.02
2022-11-14T03:39:17.356Z,20.08
2022-11-14T03:40:41.014Z,20.02
2022-11-14T03:42:01.064Z,20.01
2022-11-14T03:43:21.910Z,20.08
2022-11-14T03:44:42.415Z,20.08
2022-11-14T03:46:04.096Z,20.07
2022-11-14T03:47:24.579Z,19.89
2022-11-14T03:48:44.628Z,20.08
2022-11-14T03:50:05.697Z,20.08
2022-11-14T03:51:26.032Z,19.99
2022-11-14T03:52:49.521Z,20.02
2022-11-14T03:54:09.680Z,20.07
2022-11-14T03:55:29.959Z,20.04
2022-11-14T03:56:50.116Z,20.07
2022-11-14T03:58:10.213Z,19.99
2022-11-14T03:59:30.325Z,20.06
2022-11-14T04:00:50.768Z,20.06
2022-11-14T04:02:10.903Z,20.01
2022-11-14T04:03:31.013Z,20.08
2022-11-14T04:04:51.691Z,20.02
2022-11-14T04:06:11.817Z,20.01
2022-11-14T04:07:32.166Z,20.06
2022-11-14T04:08:52.462Z,20.02
2022-11-14T04:10:12.782Z,20.10
2022-11-14T04:11:33.080Z,20.07
2022-11-14T04:12:54.156Z,20.05
2022-11-14T04:14:14.212Z,20.09
2022-11-14T04:15:34.778Z,20.11
2022-11-14T04:16:54.972Z,20.12
2022-11-14T04:18:15.254Z,20.11
2022-11-14T04:19:35.729Z,20.06
2022-11-14T04:20:55.974Z,20.12
2022-11-14T04:22:16.217Z,20.04
2022-11-14T04:23:36.258Z,20.12
2022-11-14T04:24:56.430Z,20.12
2022-11-14T04:26:16.765Z,20.12
2022-11-14T04:27:37.137Z,20.13
2022-11-14T04:28:57.625Z,20.13
2022-11-14T04:30:17.972Z,20.13
2022-11-14T04:31:38.188Z,20.12
2022-11-14T04:32:58.423Z,20.14
2022-11-14T04:34:18.464Z,20.14
2022-11-14T04:35:38.805Z,20.11
2022-11-14T04:36:58.860Z,20.13
2022-11-14T04:38:19.012Z,20.07
2022-11-14T04:39:39.203Z,20.09
2022-11-14T04:40:59.287Z,20.13
2022-11-14T04:42:19.544Z,20.13
2022-11-14T04:43:39.828Z,20.13
2022-11-14T04:45:00.147Z,20.10
2022-11-14T04:46:20.406Z,20.09
2022-11-14T04:47:44.401Z,20.09
2022-11-14T04:49:04.574Z,20.13
2022-11-14T04:50:24.483Z,20.14
2022-11-14T04:51:44.497Z,20.07
2022-11-14T04:53:05.185Z,20.11
2022-11-14T04:54:25.784Z,20.12
2022-11-14T04:55:46.132Z,19.92
2022-11-14T04:57:06.570Z,20.07
2022-11-14T04:58:27.028Z,19.87
2022-11-14T04:59:47.379Z,20.12
2022-11-14T05:01:09.562Z,20.12
2022-11-14T05:02:33.056Z,20.04
2022-11-14T05:03:53.260Z,20.07
2022-11-14T05:05:13.344Z,20.09
2022-11-14T05:06:33.378Z,20.12
2022-11-14T05:07:55.029Z,20.08
2022-11-14T05:09:15.283Z,20.05
2022-11-14T05:10:35.704Z,20.12
2022-11-14T05:11:56.033Z,20.08
2022-11-14T05:13:16.294Z,20.07
2022-11-14T05:14:36.554Z,20.07
2022-11-14T05:16:00.510Z,20.03
2022-11-14T05:17:20.578Z,20.04
2022-11-14T05:18:45.870Z,20.13
2022-11-14T05:20:07.580Z,20.13
2022-11-14T05:21:27.913Z,20.05
2022-11-14T05:22:48.298Z,20.10
2022-11-14T05:24:08.775Z,20.11
2022-11-14T05:25:29.085Z,20.11
2022-11-14T05:26:49.198Z,20.11
2022-11-14T05:28:09.465Z,20.06
2022-11-14T05:29:29.903Z,20.08
2022-11-14T05:30:49.886Z,20.11
2022-11-14T05:32:15.090Z,20.11
2022-11-14T05:33:36.730Z,20.12
2022-11-14T05:34:57.021Z,20.04
2022-11-14T05:36:17.550Z,20.12
2022-11-14T05:37:38.334Z,20.12
2022-11-14T05:38:58.574Z,20.11
2022-11-14T05:40:19.409Z,20.05
2022-11-14T05:41:39.612Z,20.06
2022-11-14T05:42:59.913Z,20.07
2022-11-14T05:44:20.159Z,20.11
2022-11-14T05:45:40.414Z,19.96
2022-11-14T05:47:00.747Z,20.10
2022-11-14T05:48:20.935Z,20.06
2022-11-14T05:49:41.205Z,20.09
2022-11-14T05:51:03.177Z,20.08
2022-11-14T05:52:23.473Z,20.06
2022-11-14T05:53:43.651Z,20.09
2022-11-14T05:55:04.113Z,20.01
2022-11-14T05:56:24.460Z,20.09
2022-11-14T05:57:44.752Z,20.10
2022-11-14T05:59:05.004Z,20.09
2022-11-14T06:00:25.872Z,20.06
2022-11-14T06:01:46.223Z,20.02
2022-11-14T06:03:06.366Z,20.09
2022-11-14T06:04:27.336Z,20.08
2022-11-14T06:05:47.576Z,20.09
2022-11-14T06:07:07.811Z,20.08
2022-11-14T06:08:29.973Z,20.07
2022-11-14T06:09:50.205Z,20.11
2022-11-14T06:11:13.615Z,20.11
2022-11-14T06:12:33.942Z,20.15
2022-11-14T06:13:54.314Z,20.16
2022-11-14T06:15:14.477Z,20.08
2022-11-14T06:16:34.601Z,20.20
2022-11-14T06:17:55.453Z,20.27
2022-11-14T06:19:15.584Z,20.27
2022-11-14T06:20:36.621Z,20.34
2022-11-14T06:21:56.666Z,20.32
2022-11-14T06:23:20.596Z,20.44
2022-11-14T06:24:43.791Z,20.49
2022-11-14T06:26:12.921Z,20.53
2022-11-14T06:27:33.147Z,20.59
2022-11-14T06:28:53.862Z,20.63
2022-11-14T06:30:14.148Z,20.62
2022-11-14T06:31:34.651Z,20.66
2022-11-14T06:33:01.000Z,20.68
2022-11-14T06:34:21.052Z,20.81
2022-11-14T06:35:41.319Z,20.84
2022-11-14T06:37:01.594Z,20.89
2022-11-14T06:38:22.046Z,20.92
2022-11-14T06:39:42.457Z,20.88
2022-11-14T06:41:13.127Z,21.00
2022-11-14T06:42:33.193Z,21.00
2022-11-14T06:43:54.310Z,21.08
2022-11-14T06:45:14.590Z,21.10
2022-11-14T06:46:34.762Z,21.09
2022-11-14T06:47:59.213Z,21.16
2022-11-14T06:49:19.290Z,21.20
2022-11-14T06:50:39.729Z,21.24
2022-11-14T06:51:59.997Z,21.25
2022-11-14T06:53:20.247Z,21.28
2022-11-14T06:54:40.431Z,21.30
2022-11-14T06:56:07.364Z,21.30
2022-11-14T06:57:27.339Z,21.36
2022-11-14T06:58:49.147Z,21.32
2022-11-14T07:00:09.822Z,21.39
2022-11-14T07:01:30.366Z,21.40
2022-11-14T07:02:50.616Z,21.43
2022-11-14T07:04:10.871Z,21.44
2022-11-14T07:05:30.972Z,21.45
2022-11-14T07:06:51.512Z,21.47
2022-11-14T07:08:11.672Z,21.47
2022-11-14T07:09:32.247Z,21.40
2022-11-14T07:10:52.346Z,21.48
2022-11-14T07:12:12.601Z,21.43
2022-11-14T07:13:34.414Z,21.49
2022-11-14T07:14:54.583Z,21.53
2022-11-14T07:16:14.762Z,21.55
2022-11-14T07:17:36.347Z,21.56
2022-11-14T07:18:56.998Z,21.56
2022-11-14T07:20:18.610Z,21.57
2022-11-14T07:21:39.160Z,21.50
2022-11-14T07:22:59.165Z,21.51
2022-11-14T07:24:19.560Z,21.55
2022-11-14T07:25:39.620Z,21.62
2022-11-14T07:28:20.497Z,21.63
2022-11-14T07:29:40.769Z,21.53
2022-11-14T07:31:05.256Z,21.63
2022-11-14T07:32:25.742Z,21.66
2022-11-14T07:33:46.403Z,21.63
2022-11-14T07:35:06.789Z,21.66
2022-11-14T07:36:27.171Z,21.66
2022-11-14T07:37:47.469Z,21.67
2022-11-14T07:39:07.764Z,21.62
2022-11-14T07:40:28.034Z,21.62
2022-11-14T07:41:48.278Z,21.62
2022-11-14T07:43:08.752Z,21.68
2022-11-14T07:44:29.037Z,21.68
2022-11-14T07:45:49.629Z,21.64
2022-11-14T07:47:09.905Z,21.68
2022-11-14T07:48:31.016Z,21.68
2022-11-14T07:49:51.198Z,21.63
2022-11-14T07:51:17.570Z,21.67
2022-11-14T07:52:37.706Z,21.69
2022-11-14T07:53:57.831Z,21.68
2022-11-14T07:55:18.328Z,21.59
2022-11-14T07:56:38.772Z,21.60
2022-11-14T07:58:02.341Z,21.67
2022-11-14T07:59:22.556Z,21.68
2022-11-14T08:00:42.588Z,21.68
2022-11-14T08:02:03.030Z,21.68
2022-11-14T08:03:23.393Z,21.67
2022-11-14T08:04:43.666Z,21.68
2022-11-14T08:06:05.378Z,21.67
2022-11-14T08:07:25.864Z,21.61
2022-11-14T08:08:46.294Z,21.66
2022-11-14T08:10:07.210Z,21.61
2022-11-14T08:11:45.675Z,21.67
2022-11-14T08:14:47.041Z,21.72
2022-11-14T08:16:13.441Z,21.68
2022-11-14T08:17:34.512Z,21.70
2022-11-14T08:18:54.426Z,21.66
2022-11-14T08:20:14.560Z,21.63
2022-11-14T08:21:34.785Z,21.58
2022-11-14T08:23:02.159Z,21.67
2022-11-14T08:24:22.634Z,21.70
2022-11-14T08:25:42.770Z,21.69
2022-11-14T08:27:03.078Z,21.68
2022-11-14T08:28:23.255Z,21.68
2022-11-14T08:29:43.427Z,21.66
2022-11-14T08:31:04.828Z,21.67
2022-11-14T08:32:25.017Z,21.60
2022-11-14T08:33:45.166Z,21.61
2022-11-14T08:35:05.863Z,21.67
2022-11-14T08:36:25.796Z,21.68
2022-11-14T08:37:45.904Z,21.69
2022-11-14T08:39:06.238Z,21.69
2022-11-14T08:40:26.338Z,21.69
2022-11-14T08:41:46.653Z,21.65
2022-11-14T08:43:07.014Z,21.68
2022-11-14T08:44:27.218Z,21.65
2022-11-14T08:45:47.163Z,21.68
2022-11-14T08:47:07.339Z,21.67
2022-11-14T08:48:27.879Z,21.68
2022-11-14T08:49:48.672Z,21.62
2022-11-14T08:51:08.938Z,21.68
2022-11-14T08:52:29.415Z,21.62
2022-11-14T08:53:51.508Z,21.67
2022-11-14T08:55:11.711Z,21.69
2022-11-14T08:56:31.952Z,21.64
2022-11-14T08:57:53.826Z,21.66
2022-11-14T08:59:14.014Z,21.62
2022-11-14T09:00:34.358Z,21.65
2022-11-14T09:01:54.554Z,21.68
2022-11-14T09:03:16.154Z,21.63
2022-11-14T09:04:36.801Z,21.67
2022-11-14T09:05:57.519Z,21.67
2022-11-14T09:07:17.786Z,21.68
2022-11-14T09:08:38.052Z,21.67
2022-11-14T09:09:57.913Z,21.61
2022-11-14T09:11:19.382Z,21.61
2022-11-14T09:12:39.789Z,21.59
2022-11-14T09:14:01.478Z,21.66
2022-11-14T09:15:21.693Z,21.66
2022-11-14T09:16:42.049Z,21.66
2022-11-14T09:18:02.730Z,21.63
2022-11-14T09:19:22.904Z,21.65
2022-11-14T09:20:42.900Z,21.62
2022-11-14T09:22:03.157Z,21.67
2022-11-14T09:23:23.217Z,21.66
2022-11-14T09:24:43.617Z,21.66
2022-11-14T09:26:08.563Z,21.65
2022-11-14T09:27:28.957Z,21.63
2022-11-14T09:28:48.922Z,21.59
2022-11-14T09:30:10.130Z,21.47
2022-11-14T09:31:30.095Z,21.66
2022-11-14T09:32:51.308Z,21.64
2022-11-14T09:34:11.412Z,21.43
2022-11-14T09:35:31.928Z,21.57
2022-11-14T09:36:51.905Z,21.60
2022-11-14T09:38:12.284Z,21.66
2022-11-14T09:39:32.576Z,21.66
2022-11-14T09:41:10.863Z,21.67
2022-11-14T09:42:55.848Z,21.69
2022-11-14T09:44:41.971Z,21.75
2022-11-14T09:46:03.123Z,21.69
2022-11-14T09:47:31.441Z,21.71
2022-11-14T09:48:53.551Z,21.69
2022-11-14T09:50:19.629Z,21.68
2022-11-14T09:51:51.093Z,21.69
2022-11-14T09:53:16.769Z,21.70
2022-11-14T09:54:58.057Z,21.73
2022-11-14T09:56:25.408Z,21.69
2022-11-14T09:57:46.497Z,21.65
2022-11-14T09:59:11.444Z,21.66
2022-11-14T10:00:57.013Z,21.73
2022-11-14T10:02:41.361Z,21.72
2022-11-14T10:04:23.094Z,21.74
2022-11-14T10:05:55.075Z,21.74
2022-11-14T10:07:31.994Z,21.72
2022-11-14T10:09:11.116Z,21.74
2022-11-14T10:11:01.001Z,21.76
2022-11-14T10:12:43.515Z,21.74
2022-11-14T10:14:18.692Z,21.75
2022-11-14T10:16:15.598Z,21.77
2022-11-14T10:17:50.677Z,21.75
2022-11-14T10:19:26.656Z,21.75
2022-11-14T10:20:58.369Z,21.73
2022-11-14T10:22:31.526Z,21.72
2022-11-14T10:24:05.513Z,21.71
2022-11-14T10:25:38.239Z,21.73
2022-11-14T10:27:06.340Z,21.72
2022-11-14T10:29:04.376Z,21.74
2022-11-14T10:30:35.846Z,21.74
2022-11-14T10:32:16.932Z,21.75
2022-11-14T10:33:47.495Z,21.70
2022-11-14T10:35:22.021Z,21.74
2022-11-14T10:36:47.484Z,21.74
2022-11-14T10:38:07.561Z,21.74
2022-11-14T10:39:39.094Z,21.70
2022-11-14T10:41:02.666Z,21.73
2022-11-14T10:42:31.375Z,21.72
2022-11-14T10:43:52.761Z,21.66
2022-11-14T10:45:25.246Z,21.73
2022-11-14T10:46:54.347Z,21.72
2022-11-14T10:48:36.682Z,21.78
2022-11-14T10:50:04.382Z,21.75
2022-11-14T10:51:32.350Z,21.75
2022-11-14T10:53:01.076Z,21.73
2022-11-14T10:54:48.332Z,21.78
2022-11-14T10:56:12.882Z,21.79
2022-11-14T10:57:33.048Z,21.78
2022-11-14T10:58:53.010Z,21.73
2022-11-14T11:00:19.013Z,21.74
2022-11-14T11:01:41.748Z,21.76
2022-11-14T11:03:01.990Z,21.73
2022-11-14T11:04:36.973Z,21.72
2022-11-14T11:05:57.855Z,21.69
2022-11-14T11:07:45.022Z,21.77
2022-11-14T11:09:43.950Z,21.83
2022-11-14T11:11:24.234Z,21.85
2022-11-14T11:12:47.805Z,21.83
2022-11-14T11:14:18.820Z,21.79
2022-11-14T11:15:41.465Z,21.78
2022-11-14T11:17:15.487Z,21.79
2022-11-14T11:18:37.380Z,21.77
2022-11-14T11:20:23.886Z,21.80
2022-11-14T11:21:50.023Z,21.57
2022-11-14T11:23:10.489Z,21.80
2022-11-14T11:24:34.150Z,21.77
2022-11-14T11:26:05.841Z,21.78
2022-11-14T11:27:30.493Z,21.78
2022-11-14T11:29:05.163Z,21.81
2022-11-14T11:30:25.203Z,21.71
2022-11-14T11:31:55.906Z,21.68
2022-11-14T11:33:21.809Z,21.79
2022-11-14T11:34:42.133Z,21.80
2022-11-14T11:36:13.358Z,21.78
2022-11-14T11:37:40.332Z,21.80
2022-11-14T11:39:01.048Z,21.82
2022-11-14T11:40:25.351Z,21.79
2022-11-14T11:43:39.853Z,21.83
2022-11-14T11:45:04.173Z,21.83
2022-11-14T11:46:53.932Z,21.86
2022-11-14T11:48:18.670Z,21.61
2022-11-14T11:49:52.905Z,21.85
2022-11-14T11:51:22.637Z,21.86
2022-11-14T11:53:12.798Z,21.88
2022-11-14T11:54:49.485Z,21.89
2022-11-14T11:56:13.201Z,21.87
2022-11-14T11:58:03.066Z,21.91
2022-11-14T11:59:46.991Z,21.87
2022-11-14T12:01:10.929Z,21.85
2022-11-14T12:02:31.230Z,21.87
2022-11-14T12:03:54.337Z,21.84
2022-11-14T12:05:17.654Z,21.81
2022-11-14T12:06:49.377Z,21.83
2022-11-14T12:08:21.887Z,21.75
2022-11-14T12:10:09.374Z,21.85
2022-11-14T12:11:26.652Z,21.81
2022-11-14T12:12:54.909Z,21.81
2022-11-14T12:14:40.130Z,21.89
2022-11-14T12:16:26.506Z,21.91
2022-11-14T12:18:12.141Z,21.88
2022-11-14T12:19:52.672Z,21.94
2022-11-14T12:21:53.065Z,21.93
2022-11-14T12:23:18.824Z,21.93
2022-11-14T12:24:58.169Z,21.88
2022-11-14T12:26:24.127Z,21.90
2022-11-14T12:28:09.715Z,21.90
2022-11-14T12:29:49.829Z,21.90
2022-11-14T12:31:15.201Z,21.88
2022-11-14T12:32:41.581Z,21.87
2022-11-14T12:34:27.548Z,21.90
2022-11-14T12:35:57.937Z,21.70
2022-11-14T12:37:23.769Z,21.85
2022-11-14T12:38:46.489Z,21.87
2022-11-14T12:40:18.783Z,21.78
2022-11-14T12:41:40.800Z,21.85
2022-11-14T12:43:02.527Z,21.85
2022-11-14T12:44:28.553Z,21.84
2022-11-14T12:45:51.826Z,21.84
2022-11-14T12:47:23.202Z,21.84
2022-11-14T12:48:45.180Z,21.76
2022-11-14T12:50:30.125Z,21.88
2022-11-14T12:51:51.551Z,21.88
2022-11-14T12:53:35.969Z,21.88
2022-11-14T12:54:56.297Z,21.83
2022-11-14T12:56:31.623Z,21.86
2022-11-14T12:58:15.680Z,21.91
2022-11-14T12:59:49.878Z,21.86
2022-11-14T13:01:53.425Z,21.92
2022-11-14T13:03:32.966Z,21.95
2022-11-14T13:05:16.423Z,21.93
2022-11-14T13:06:42.435Z,21.90
2022-11-14T13:08:20.694Z,21.90
2022-11-14T13:10:19.669Z,21.93
2022-11-14T13:12:03.943Z,21.92
2022-11-14T13:13:42.737Z,21.92
2022-11-14T13:15:47.448Z,21.87
2022-11-14T13:17:36.991Z,21.93
2022-11-14T13:19:39.242Z,21.95
2022-11-14T13:21:25.550Z,21.85
2022-11-14T13:22:46.940Z,21.92
2022-11-14T13:24:07.713Z,21.89
2022-11-14T13:25:28.646Z,21.85
2022-11-14T13:26:52.261Z,21.83
2022-11-14T13:28:37.150Z,21.85
2022-11-14T13:29:58.282Z,21.87
2022-11-14T13:31:25.309Z,21.85
2022-11-14T13:32:45.734Z,21.84
2022-11-14T13:34:43.622Z,21.86
2022-11-14T13:36:05.871Z,21.84
2022-11-14T13:37:53.244Z,21.88
2022-11-14T13:39:23.578Z,21.87
2022-11-14T13:40:52.832Z,21.84
2022-11-14T13:42:38.340Z,21.85
2022-11-14T13:44:22.933Z,21.81
2022-11-14T13:46:10.004Z,21.89
2022-11-14T13:47:42.195Z,21.87
2022-11-14T13:49:17.539Z,21.86
2022-11-14T13:50:40.579Z,21.83
2022-11-14T13:52:01.317Z,21.81
2022-11-14T13:53:26.073Z,21.79
2022-11-14T13:54:47.971Z,21.79
2022-11-14T13:56:19.361Z,21.80
2022-11-14T13:58:03.681Z,21.82
2022-11-14T13:59:27.033Z,21.82
2022-11-14T14:01:15.713Z,21.82
2022-11-14T14:02:40.579Z,21.85
2022-11-14T14:04:09.531Z,21.82
2022-11-14T14:06:11.121Z,21.70
2022-11-14T14:07:58.945Z,21.85
2022-11-14T14:09:32.789Z,21.87
2022-11-14T14:11:14.241Z,21.84
2022-11-14T14:12:49.077Z,21.85
2022-11-14T14:14:20.986Z,21.85
2022-11-14T14:15:51.894Z,21.85
2022-11-14T14:17:18.469Z,21.75
2022-11-14T14:18:47.468Z,21.84
2022-11-14T14:20:29.743Z,21.82
2022-11-14T14:22:15.142Z,21.91
2022-11-14T14:24:05.887Z,21.94
2022-11-14T14:26:06.057Z,21.96
2022-11-14T14:28:05.154Z,21.99
2022-11-14T14:29:28.059Z,21.94
2022-11-14T14:31:02.201Z,21.94
2022-11-14T14:32:22.414Z,21.93
2022-11-14T14:33:47.024Z,21.90
2022-11-14T14:35:28.784Z,21.93
2022-11-14T14:36:51.702Z,21.92
2022-11-14T14:38:21.446Z,21.90
2022-11-14T14:39:41.453Z,21.91
2022-11-14T14:41:01.771Z,21.87
2022-11-14T14:42:22.357Z,21.91
2022-11-14T14:43:49.482Z,21.89
2022-11-14T14:45:21.109Z,21.92
2022-11-14T14:46:40.993Z,21.89
2022-11-14T14:48:02.760Z,21.93
2022-11-14T14:49:34.531Z,21.92
2022-11-14T14:50:56.827Z,21.92
2022-11-14T14:52:34.187Z,21.96
2022-11-14T14:53:54.276Z,21.97
2022-11-14T14:55:23.981Z,21.72
2022-11-14T14:56:54.113Z,21.95
2022-11-14T14:58:23.351Z,21.96
2022-11-14T14:59:44.776Z,21.96
2022-11-14T15:01:10.941Z,21.97
2022-11-14T15:02:31.509Z,21.97
2022-11-14T15:04:02.726Z,21.94
2022-11-14T15:05:24.076Z,21.94
2022-11-14T15:06:47.115Z,21.93
2022-11-14T15:08:14.209Z,21.94
2022-11-14T15:09:34.310Z,21.96
2022-11-14T15:10:59.170Z,21.88
2022-11-14T15:12:19.621Z,21.95
2022-11-14T15:13:42.350Z,21.92
2022-11-14T15:15:03.256Z,21.94
2022-11-14T15:16:24.866Z,21.93
2022-11-14T15:17:45.586Z,21.92
2022-11-14T15:19:06.177Z,21.92
2022-11-14T15:20:28.979Z,21.92
2022-11-14T15:22:25.718Z,21.99
2022-11-14T15:23:45.982Z,21.98
2022-11-14T15:25:17.925Z,21.96
2022-11-14T15:26:38.662Z,21.95
2022-11-14T15:28:00.358Z,21.94
2022-11-14T15:29:21.868Z,21.89
2022-11-14T15:30:42.013Z,21.84
2022-11-14T15:32:04.507Z,21.88
2022-11-14T15:33:31.796Z,21.87
2022-11-14T15:35:25.721Z,21.94
2022-11-14T15:37:18.213Z,21.99
2022-11-14T15:38:45.649Z,21.98
2022-11-14T15:40:18.622Z,21.94
2022-11-14T15:41:38.964Z,21.89
2022-11-14T15:43:02.908Z,21.90
2022-11-14T15:44:34.371Z,21.89
2022-11-14T15:45:56.496Z,21.79
2022-11-14T15:47:27.432Z,21.87
2022-11-14T15:48:47.705Z,21.88
2022-11-14T15:50:14.216Z,21.86
2022-11-14T15:51:52.658Z,21.85
2022-11-14T15:53:24.753Z,21.88
2022-11-14T15:54:45.067Z,21.87
2022-11-14T15:56:05.526Z,21.86
2022-11-14T15:57:25.811Z,21.83
2022-11-14T15:58:49.317Z,21.82
2022-11-14T16:00:14.342Z,21.83
2022-11-14T16:01:34.935Z,21.84
2022-11-14T16:02:58.751Z,21.83
2022-11-14T16:04:25.997Z,21.83
2022-11-14T16:05:46.306Z,21.83
2022-11-14T16:07:06.812Z,21.81
2022-11-14T16:08:27.434Z,21.80
2022-11-14T16:09:48.846Z,21.79
2022-11-14T16:11:08.828Z,21.80
2022-11-14T16:12:29.153Z,21.78
2022-11-14T16:13:49.486Z,21.80
2022-11-14T16:16:31.464Z,21.79
2022-11-14T16:17:51.626Z,21.78
2022-11-14T16:19:14.670Z,21.77
2022-11-14T16:20:38.353Z,21.79
2022-11-14T16:22:02.938Z,21.69
2022-11-14T16:23:23.130Z,21.79
2022-11-14T16:24:43.705Z,21.78
2022-11-14T16:26:03.687Z,21.76
2022-11-14T16:27:24.014Z,21.77
2022-11-14T16:28:44.297Z,21.69
2022-11-14T16:30:05.412Z,21.76
2022-11-14T16:31:25.413Z,21.76
2022-11-14T16:32:48.077Z,21.74
2022-11-14T16:34:15.763Z,21.74
2022-11-14T16:35:35.863Z,21.75
2022-11-14T16:37:01.874Z,21.73
2022-11-14T16:38:21.973Z,21.75
2022-11-14T16:39:41.918Z,21.74
2022-11-14T16:41:02.207Z,21.62
2022-11-14T16:42:22.522Z,21.73
2022-11-14T16:43:42.767Z,21.72
2022-11-14T16:45:03.603Z,21.71
2022-11-14T16:46:25.049Z,21.66
2022-11-14T16:47:45.073Z,21.72
2022-11-14T16:49:05.341Z,21.70
2022-11-14T16:50:25.674Z,21.69
2022-11-14T16:51:50.357Z,21.66
2022-11-14T16:53:10.957Z,21.71
2022-11-14T16:54:33.224Z,21.70
2022-11-14T16:55:53.421Z,21.70
2022-11-14T16:57:13.715Z,21.67
2022-11-14T16:58:34.063Z,21.69
2022-11-14T16:59:53.990Z,21.68
2022-11-14T17:01:21.192Z,21.68
2022-11-14T17:02:42.065Z,21.64
2022-11-14T17:04:02.224Z,21.68
2022-11-14T17:05:22.523Z,21.64
2022-11-14T17:06:42.839Z,21.68
2022-11-14T17:08:03.114Z,21.60
2022-11-14T17:09:23.214Z,21.67
2022-11-14T17:10:44.588Z,21.66
2022-11-14T17:12:04.924Z,21.65
2022-11-14T17:13:25.481Z,21.67
2022-11-14T17:14:45.924Z,21.63
2022-11-14T17:16:06.626Z,21.66
2022-11-14T17:17:26.790Z,21.67
2022-11-14T17:18:54.622Z,21.66
2022-11-14T17:20:14.954Z,21.68
2022-11-14T17:22:55.586Z,21.69
2022-11-14T17:24:15.665Z,21.68
2022-11-14T17:25:35.809Z,21.64
2022-11-14T17:26:55.939Z,21.68
2022-11-14T17:28:16.410Z,21.48
2022-11-14T17:29:36.746Z,21.62
2022-11-14T17:30:57.013Z,21.68
2022-11-14T17:32:17.154Z,21.68
2022-11-14T17:33:37.925Z,21.66
2022-11-14T17:34:58.222Z,21.69
2022-11-14T17:36:18.845Z,21.67
2022-11-14T17:37:39.025Z,21.70
2022-11-14T17:38:59.889Z,21.67
2022-11-14T17:40:20.208Z,21.62
2022-11-14T17:41:40.299Z,21.69
2022-11-14T17:43:00.525Z,21.69
2022-11-14T17:44:20.878Z,21.69
2022-11-14T17:45:41.495Z,21.68
2022-11-14T17:47:01.956Z,21.68
2022-11-14T17:48:23.523Z,21.69
2022-11-14T17:49:43.454Z,21.69
2022-11-14T17:51:05.894Z,21.67
2022-11-14T17:52:25.883Z,21.68
2022-11-14T17:53:46.221Z,21.61
2022-11-14T17:55:06.895Z,21.66
2022-11-14T17:56:28.104Z,21.60
2022-11-14T17:57:48.332Z,21.63
2022-11-14T17:59:08.730Z,21.65
2022-11-14T18:00:28.954Z,21.66
2022-11-14T18:01:49.277Z,21.66
2022-11-14T18:03:09.577Z,21.61
2022-11-14T18:04:31.829Z,21.64
2022-11-14T18:05:52.151Z,21.65
2022-11-14T18:07:12.627Z,21.63
2022-11-14T18:08:34.673Z,21.60
2022-11-14T18:09:55.028Z,21.55
2022-11-14T18:11:17.282Z,21.62
2022-11-14T18:12:37.732Z,21.62
2022-11-14T18:13:58.531Z,21.63
2022-11-14T18:15:20.730Z,21.62